Time;durP1;ratioP1;P1;durP2;ratioP2;P2;SDS_P1;SDS_P2;PMS_P1;PMS_P2;Temp;Humidity;BMP_temperature;BMP_pressure;BME280_temperature;BME280_humidity;BME280_pressure;Samples;Min_cycle;Max_cycle;Signal;HPM_P1;HPM_P2
2021/12/16 00:02:43;;;;;;;;;42.75;35.75;;;;;10.95;67.90;103403.00;5009264;28;45785;-85
2021/12/16 00:05:49;;;;;;;;;44.75;36.00;;;;;10.94;67.82;103395.97;5008453;28;46044;-84
2021/12/16 00:08:29;;;;;;;;;44.50;35.75;;;;;10.95;68.02;103403.00;5002539;28;45542;-84
2021/12/16 00:11:03;;;;;;;;;47.00;36.00;;;;;10.94;68.26;103405.63;5005923;28;45420;-84
2021/12/16 00:30:10;;;;;;;;;40.75;33.50;;;;;10.93;68.87;103398.59;5009471;28;45470;-84
2021/12/16 00:35:07;;;;;;;;;48.75;38.75;;;;;10.93;68.20;103399.47;5008905;28;45974;-84
2021/12/16 00:37:33;;;;;;;;;50.50;37.00;;;;;10.95;67.84;103400.38;5005182;28;45403;-84
2021/12/16 00:39:59;;;;;;;;;50.00;41.00;;;;;10.96;68.02;103401.25;5027754;28;45445;-84
2021/12/16 00:42:38;;;;;;;;;45.75;37.00;;;;;10.96;68.01;103399.53;5005306;28;46256;-84
2021/12/16 00:45:31;;;;;;;;;43.75;38.25;;;;;10.97;67.74;103403.00;5007893;28;45438;-84
2021/12/16 00:48:01;;;;;;;;;46.75;36.00;;;;;11.00;67.82;103411.81;5007672;28;45408;-88
2021/12/16 00:58:10;;;;;;;;;40.75;33.75;;;;;11.00;68.19;103392.50;5013624;28;45443;-89
2021/12/16 01:00:36;;;;;;;;;40.00;34.00;;;;;11.00;68.13;103396.03;5022790;28;45366;-85
2021/12/16 01:03:21;;;;;;;;;44.75;34.50;;;;;11.02;68.17;103399.56;5006170;28;46994;-85
2021/12/16 01:47:25;;;;;;;;;45.75;35.25;;;;;11.00;67.82;103396.03;5022321;28;45592;-83
2021/12/16 01:52:05;;;;;;;;;44.75;35.00;;;;;11.02;67.91;103399.56;5006451;28;45723;-85
2021/12/16 01:57:22;;;;;;;;;48.00;38.00;;;;;11.01;67.93;103403.03;5010662;28;45912;-86
2021/12/16 01:59:59;;;;;;;;;46.75;37.50;;;;;11.01;67.91;103405.66;5011907;28;46507;-89
2021/12/16 02:10:24;;;;;;;;;46.00;34.50;;;;;11.03;67.98;103403.97;5006495;28;46146;-86
2021/12/16 02:13:09;;;;;;;;;46.50;35.00;;;;;11.05;68.37;103405.72;5009883;28;45761;-86
2021/12/16 02:29:30;;;;;;;;;41.75;35.00;;;;;11.03;68.19;103405.72;5008094;28;46068;-86
2021/12/16 02:32:05;;;;;;;;;45.50;35.25;;;;;11.03;68.10;103403.97;5006945;28;45637;-87
2021/12/16 02:34:58;;;;;;;;;46.00;36.00;;;;;11.02;67.83;103404.81;5007492;28;46298;-82
2021/12/16 02:37:24;;;;;;;;;51.00;38.75;;;;;11.05;68.07;103409.22;5009616;28;47130;-87
2021/12/16 02:39:51;;;;;;;;;46.25;35.50;;;;;11.03;67.75;103403.97;5011302;28;45430;-87
2021/12/16 02:42:24;;;;;;;;;44.00;36.00;;;;;11.04;68.07;103404.81;5004395;28;46341;-86
2021/12/16 02:50:19;;;;;;;;;45.50;36.00;;;;;11.07;67.76;103404.84;5005302;28;45650;-87
2021/12/16 02:52:45;;;;;;;;;47.75;36.50;;;;;11.06;67.80;103402.22;4999432;28;45639;-87
2021/12/16 02:55:12;;;;;;;;;46.25;35.00;;;;;11.06;68.01;103408.38;5002911;28;45342;-86
2021/12/16 02:57:48;;;;;;;;;43.75;36.00;;;;;11.10;68.14;103414.53;5005981;28;47124;-87
2021/12/16 03:00:15;;;;;;;;;45.50;35.25;;;;;11.08;67.83;103405.75;5002967;28;47003;-87
2021/12/16 03:02:44;;;;;;;;;41.50;33.50;;;;;11.09;68.03;103412.75;5006732;28;45571;-87
2021/12/16 03:05:11;;;;;;;;;37.75;33.00;;;;;11.10;68.11;103414.53;4998833;28;46093;-86
2021/12/16 03:07:37;;;;;;;;;42.50;34.50;;;;;11.09;68.13;103404.84;5003851;28;45400;-87
2021/12/16 03:15:41;;;;;;;;;40.75;32.75;;;;;11.06;68.11;103411.00;5000338;28;46046;-86
2021/12/16 03:18:21;;;;;;;;;41.25;33.75;;;;;11.06;68.24;103399.59;5016714;28;45817;-86
2021/12/16 03:20:54;;;;;;;;;40.00;33.75;;;;;11.06;68.20;103404.84;5011408;28;45537;-86
2021/12/16 03:28:38;;;;;;;;;45.25;36.25;;;;;11.07;67.82;103409.22;5004049;28;45804;-84
2021/12/16 03:38:46;;;;;;;;;45.00;36.25;;;;;11.10;67.97;103406.63;5001360;28;45643;-86
2021/12/16 03:41:12;;;;;;;;;45.00;33.00;;;;;11.09;68.09;103404.84;5000566;28;46316;-85
2021/12/16 03:43:39;;;;;;;;;48.75;37.25;;;;;11.10;68.14;103411.91;5010625;28;46801;-85
2021/12/16 03:48:52;;;;;;;;;43.75;36.25;;;;;11.09;68.32;103410.13;5008476;28;45483;-87
2021/12/16 03:51:23;;;;;;;;;42.50;35.50;;;;;11.09;68.17;103415.38;5009568;28;45724;-86
2021/12/16 03:53:52;;;;;;;;;45.00;35.50;;;;;11.10;68.20;103422.41;4997886;28;46021;-87
2021/12/16 03:56:20;;;;;;;;;42.00;35.00;;;;;11.08;68.65;103411.00;5010057;28;46021;-86
2021/12/16 03:58:46;;;;;;;;;47.25;35.25;;;;;11.09;68.40;103410.13;5002704;28;45683;-86
2021/12/16 04:01:17;;;;;;;;;38.00;33.75;;;;;11.11;68.42;103414.53;5033226;28;45957;-85
2021/12/16 04:03:43;;;;;;;;;42.50;34.00;;;;;11.13;68.40;103422.47;5009777;28;47172;-86
2021/12/16 04:06:10;;;;;;;;;50.00;37.00;;;;;11.12;68.59;103416.31;5007232;28;45292;-84
2021/12/16 04:08:35;;;;;;;;;40.50;33.25;;;;;11.10;68.30;103412.78;5038568;28;45552;-83
2021/12/16 04:11:10;;;;;;;;;47.50;39.00;;;;;11.08;67.79;103414.53;5007055;28;47215;-88
2021/12/16 04:13:51;;;;;;;;;46.50;36.50;;;;;11.11;68.39;103418.94;5000358;28;46419;-90
2021/12/16 04:16:17;;;;;;;;;47.75;37.25;;;;;11.12;68.22;103418.03;5010217;28;46164;-89
2021/12/16 04:18:42;;;;;;;;;47.00;34.50;;;;;11.10;68.21;103422.41;5000332;28;45457;-90
2021/12/16 04:21:08;;;;;;;;;52.25;37.25;;;;;11.12;68.09;103423.31;5006834;28;45141;-86
2021/12/16 04:23:33;;;;;;;;;51.25;40.75;;;;;11.13;68.11;103422.47;5006148;28;46596;-87
2021/12/16 04:25:59;;;;;;;;;49.50;39.50;;;;;11.10;68.31;103415.41;5011292;28;45340;-88
2021/12/16 04:28:26;;;;;;;;;47.25;37.50;;;;;11.12;68.08;103418.03;5000724;28;45704;-89
2021/12/16 04:30:53;;;;;;;;;51.50;41.00;;;;;11.11;68.66;103417.16;5004824;28;45475;-89
2021/12/16 04:33:19;;;;;;;;;56.25;44.00;;;;;11.13;68.29;103428.59;5005935;28;45430;-89
2021/12/16 04:35:45;;;;;;;;;58.75;43.00;;;;;11.12;68.04;103423.31;4996922;28;45465;-86
2021/12/16 04:38:12;;;;;;;;;53.25;42.00;;;;;11.13;67.93;103427.72;5007680;28;45705;-86
2021/12/16 04:40:39;;;;;;;;;52.25;41.25;;;;;11.13;68.11;103427.72;4999106;28;45215;-86
2021/12/16 04:43:06;;;;;;;;;52.50;42.00;;;;;11.11;68.30;103435.59;5015395;28;47145;-85
2021/12/16 04:45:34;;;;;;;;;55.50;43.75;;;;;11.13;68.20;103435.63;5017688;28;45179;-85
2021/12/16 04:48:00;;;;;;;;;50.50;39.00;;;;;11.13;68.15;103433.88;5012296;28;45434;-86
2021/12/16 04:50:27;;;;;;;;;47.75;39.25;;;;;11.16;68.25;103435.63;5007124;28;47123;-88
2021/12/16 04:52:52;;;;;;;;;51.75;41.00;;;;;11.17;68.19;103442.66;5001678;28;45554;-85
2021/12/16 04:55:23;;;;;;;;;47.75;38.75;;;;;11.15;68.09;103439.13;5001295;28;46056;-85
2021/12/16 04:57:49;;;;;;;;;47.00;37.25;;;;;11.16;68.80;103440.88;5009289;28;45291;-83
2021/12/16 05:00:21;;;;;;;;;53.25;40.50;;;;;11.14;67.84;103437.34;5004432;28;45513;-83
2021/12/16 05:02:47;;;;;;;;;51.50;41.25;;;;;11.17;67.84;103439.13;5007208;28;45707;-83
2021/12/16 05:05:13;;;;;;;;;51.75;42.00;;;;;11.16;68.19;103443.50;5002244;28;45705;-85
2021/12/16 05:07:40;;;;;;;;;48.00;38.50;;;;;11.14;68.33;103442.63;5008667;28;45564;-88
2021/12/16 05:10:08;;;;;;;;;50.75;40.25;;;;;11.19;68.28;103445.28;5005450;28;45445;-86
2021/12/16 05:12:40;;;;;;;;;51.75;39.00;;;;;11.18;68.21;103448.81;5020907;28;46180;-87
2021/12/16 05:15:10;;;;;;;;;50.25;39.25;;;;;11.17;68.38;103440.03;5011047;28;45516;-86
2021/12/16 05:17:42;;;;;;;;;49.50;40.00;;;;;11.19;68.56;103454.06;5004739;28;45667;-87
2021/12/16 05:20:12;;;;;;;;;48.25;39.75;;;;;11.18;68.60;103439.16;5009673;28;45733;-84
2021/12/16 05:27:58;;;;;;;;;54.50;43.25;;;;;11.18;68.47;103435.66;5002946;28;46667;-84
2021/12/16 05:30:24;;;;;;;;;53.75;43.25;;;;;11.19;68.19;103442.66;5007970;28;45434;-84
2021/12/16 05:32:49;;;;;;;;;52.00;41.75;;;;;11.19;68.25;103445.28;5008324;28;45472;-84
2021/12/16 05:35:20;;;;;;;;;54.25;42.25;;;;;11.18;68.56;103444.44;5002439;28;45755;-87
2021/12/16 05:37:46;;;;;;;;;50.25;40.50;;;;;11.19;68.33;103443.53;5008054;28;45660;-82
2021/12/16 05:40:15;;;;;;;;;54.75;43.50;;;;;11.17;68.12;103447.94;5006444;28;45419;-90
2021/12/16 05:42:41;;;;;;;;;54.00;42.50;;;;;11.18;68.14;103451.44;5015340;28;48227;-89
2021/12/16 05:45:08;;;;;;;;;54.00;41.25;;;;;11.19;68.46;103455.81;5021489;28;45485;-87
2021/12/16 05:47:34;;;;;;;;;50.25;39.25;;;;;11.20;67.82;103458.50;5026180;28;45347;-89
2021/12/16 05:49:59;;;;;;;;;49.50;38.00;;;;;11.20;68.16;103466.38;5021799;28;45201;-87
2021/12/16 05:52:25;;;;;;;;;52.00;41.50;;;;;11.20;68.27;103461.13;5021773;28;45208;-82
2021/12/16 05:54:50;;;;;;;;;50.00;38.50;;;;;11.22;68.19;103464.66;5026985;28;45287;-88
2021/12/16 05:57:16;;;;;;;;;49.75;39.25;;;;;11.24;68.16;103475.19;5021950;28;45192;-88
2021/12/16 05:59:41;;;;;;;;;46.00;36.75;;;;;11.23;68.57;103470.78;5021444;28;45260;-88
2021/12/16 06:02:07;;;;;;;;;46.25;37.75;;;;;11.25;68.38;103474.31;5019370;28;46479;-88
2021/12/16 06:04:33;;;;;;;;;50.75;40.50;;;;;11.24;68.54;103473.44;5013090;28;45538;-88
2021/12/16 06:06:59;;;;;;;;;51.25;36.75;;;;;11.25;68.29;103475.22;5011540;28;45663;-88
2021/12/16 06:09:24;;;;;;;;;48.50;39.00;;;;;11.26;68.57;103476.06;5034048;28;45529;-88
2021/12/16 06:11:52;;;;;;;;;49.25;40.00;;;;;11.25;68.54;103480.47;5021567;28;45333;-88
2021/12/16 06:14:44;;;;;;;;;43.75;37.25;;;;;11.25;68.42;103484.84;5021418;28;45326;-88
2021/12/16 06:27:46;;;;;;;;;47.25;37.25;;;;;11.24;68.73;103477.81;5020078;28;45347;-88
2021/12/16 06:30:15;;;;;;;;;49.00;39.25;;;;;11.24;68.84;103483.97;5017913;28;45848;-88
2021/12/16 06:32:41;;;;;;;;;45.75;35.75;;;;;11.25;68.71;103491.00;5017800;28;46506;-88
2021/12/16 06:35:08;;;;;;;;;46.50;36.75;;;;;11.23;68.46;103491.84;5016470;28;45478;-87
2021/12/16 06:37:33;;;;;;;;;46.00;37.25;;;;;11.24;68.46;103486.59;5020175;28;45233;-87
2021/12/16 06:39:59;;;;;;;;;46.00;38.50;;;;;11.25;68.46;103480.47;5019714;28;45303;-86
2021/12/16 06:42:26;;;;;;;;;45.00;36.00;;;;;11.25;68.89;103485.75;5012206;28;46138;-87
2021/12/16 06:44:57;;;;;;;;;45.00;36.00;;;;;11.27;68.34;103479.59;5019740;28;45463;-87
2021/12/16 06:47:32;;;;;;;;;45.50;37.00;;;;;11.31;68.66;103486.66;5019572;28;45346;-86
2021/12/16 06:49:57;;;;;;;;;45.50;36.25;;;;;11.30;68.42;103484.88;5018127;28;45403;-86
2021/12/16 06:52:30;;;;;;;;;49.25;39.00;;;;;11.32;68.68;103485.78;5018992;28;45464;-85
2021/12/16 06:55:06;;;;;;;;;45.25;38.00;;;;;11.33;68.35;103498.09;5009131;28;45363;-87
2021/12/16 07:00:12;;;;;;;;;46.50;36.00;;;;;11.36;68.40;103498.09;5020766;28;45423;-87
2021/12/16 07:03:01;;;;;;;;;45.25;37.50;;;;;11.35;68.16;103491.06;5034732;28;46814;-86
2021/12/16 07:05:37;;;;;;;;;47.50;37.50;;;;;11.35;68.22;103498.97;5020054;28;45431;-86
2021/12/16 07:08:06;;;;;;;;;48.50;37.00;;;;;11.38;68.44;103491.09;5020818;28;45348;-87
2021/12/16 07:10:31;;;;;;;;;46.00;39.25;;;;;11.39;68.31;103508.66;5022592;28;45213;-87
2021/12/16 07:13:06;;;;;;;;;49.00;39.75;;;;;11.38;68.26;103504.28;5020792;28;46282;-87
2021/12/16 07:15:33;;;;;;;;;49.00;39.50;;;;;11.40;68.55;103505.16;5035699;28;45447;-88
2021/12/16 07:17:58;;;;;;;;;47.25;37.75;;;;;11.39;68.49;103508.66;5020533;28;45446;-87
2021/12/16 07:20:27;;;;;;;;;43.75;35.25;;;;;11.43;68.41;103510.44;5020208;28;45465;-87
2021/12/16 07:22:54;;;;;;;;;42.75;36.25;;;;;11.43;68.21;103506.94;5019517;28;46474;-87
2021/12/16 07:25:20;;;;;;;;;47.50;39.00;;;;;11.43;68.33;103507.81;5020318;28;45190;-88
2021/12/16 07:27:46;;;;;;;;;49.00;40.00;;;;;11.42;68.71;103494.63;5020299;28;45775;-87
2021/12/16 07:30:16;;;;;;;;;43.75;36.00;;;;;11.44;68.54;103512.22;5025772;28;45421;-87
2021/12/16 07:32:42;;;;;;;;;47.50;36.50;;;;;11.43;68.54;103501.69;5020286;28;45452;-87
2021/12/16 07:35:12;;;;;;;;;47.00;38.00;;;;;11.45;68.35;103508.72;5020143;28;45450;-87
2021/12/16 07:37:38;;;;;;;;;42.75;35.50;;;;;11.42;68.61;103508.69;5019030;28;45234;-87
2021/12/16 07:40:07;;;;;;;;;48.75;39.50;;;;;11.45;68.62;103513.09;5020050;28;45461;-87
2021/12/16 07:42:45;;;;;;;;;49.25;37.75;;;;;11.44;68.66;103522.75;5011388;28;45545;-87
2021/12/16 07:45:13;;;;;;;;;47.75;36.50;;;;;11.43;68.52;103514.84;5029784;28;45417;-87
2021/12/16 07:47:39;;;;;;;;;43.75;36.25;;;;;11.42;68.86;103508.69;5019536;28;45447;-87
2021/12/16 07:50:06;;;;;;;;;44.75;37.00;;;;;11.42;68.57;103507.81;5009013;28;45482;-88
2021/12/16 07:52:32;;;;;;;;;45.25;36.00;;;;;11.43;68.58;103506.94;5016836;28;47532;-86
2021/12/16 07:54:58;;;;;;;;;46.75;37.00;;;;;11.43;68.40;103512.22;5023711;28;45773;-87
2021/12/16 07:57:23;;;;;;;;;46.00;36.50;;;;;11.43;68.57;103510.44;5019114;28;45899;-87
2021/12/16 07:59:49;;;;;;;;;49.25;40.25;;;;;11.45;68.17;103515.72;5019673;28;45213;-88
2021/12/16 08:02:15;;;;;;;;;46.00;37.75;;;;;11.44;68.84;103511.31;5019519;28;46447;-87
2021/12/16 08:04:45;;;;;;;;;42.50;35.25;;;;;11.46;68.53;103520.13;5044816;28;45239;-88
2021/12/16 08:07:14;;;;;;;;;50.00;38.00;;;;;11.45;68.56;103521.00;5017820;28;45359;-87
2021/12/16 08:09:41;;;;;;;;;46.75;36.00;;;;;11.47;68.75;103524.53;5034798;28;46534;-87
2021/12/16 08:12:10;;;;;;;;;48.00;37.00;;;;;11.50;68.78;103531.56;5035138;28;46397;-87
2021/12/16 08:14:36;;;;;;;;;43.75;37.50;;;;;11.51;68.58;103543.88;5019486;28;45934;-87
2021/12/16 08:17:02;;;;;;;;;45.00;37.25;;;;;11.50;68.61;103531.56;5025128;28;45534;-87
2021/12/16 08:19:28;;;;;;;;;50.75;38.50;;;;;11.51;68.45;103539.47;5019603;28;45182;-84
2021/12/16 08:21:53;;;;;;;;;47.75;36.50;;;;;11.54;68.83;103541.25;5018242;28;48140;-87
2021/12/16 08:24:18;;;;;;;;;52.75;38.75;;;;;11.54;68.72;103547.41;5016424;28;45342;-86
2021/12/16 08:26:47;;;;;;;;;44.25;37.25;;;;;11.53;68.59;103545.63;5018214;28;45276;-86
2021/12/16 08:29:14;;;;;;;;;46.00;38.25;;;;;11.53;68.85;103539.50;5018032;28;45951;-87
2021/12/16 08:31:40;;;;;;;;;50.00;38.75;;;;;11.53;69.00;103536.88;5018094;28;45295;-85
2021/12/16 08:34:06;;;;;;;;;50.00;37.50;;;;;11.54;68.76;103543.88;5019253;28;45446;-87
2021/12/16 08:36:32;;;;;;;;;38.75;34.00;;;;;11.56;69.08;103548.31;5019625;28;45421;-87
2021/12/16 08:39:00;;;;;;;;;46.50;36.50;;;;;11.58;68.79;103545.69;5018057;28;47150;-90
2021/12/16 08:41:32;;;;;;;;;47.25;40.25;;;;;11.57;68.43;103542.19;5016057;28;47115;-90
2021/12/16 08:43:58;;;;;;;;;49.25;39.50;;;;;11.59;68.79;103542.19;5037923;28;45268;-90
2021/12/16 08:46:27;;;;;;;;;47.25;39.25;;;;;11.61;68.75;103550.06;5017450;28;45804;-90
2021/12/16 08:48:53;;;;;;;;;44.25;36.25;;;;;11.61;68.63;103550.97;5042760;28;45941;-92
2021/12/16 08:51:22;;;;;;;;;55.25;41.25;;;;;11.64;68.84;103558.91;5012706;28;48425;-85
2021/12/16 08:53:50;;;;;;;;;53.00;39.50;;;;;11.64;68.77;103551.00;5012671;28;45446;-84
2021/12/16 08:56:17;;;;;;;;;53.50;41.25;;;;;11.65;68.40;103558.06;5017312;28;45220;-84
2021/12/16 08:58:43;;;;;;;;;49.00;40.25;;;;;11.66;68.66;103561.53;5015705;28;45604;-83
2021/12/16 09:01:19;;;;;;;;;50.50;40.00;;;;;11.70;68.78;103558.94;5005085;28;45571;-82
2021/12/16 09:03:45;;;;;;;;;52.00;42.50;;;;;11.71;68.71;103559.81;5007877;28;45571;-82
2021/12/16 09:06:11;;;;;;;;;52.75;39.00;;;;;11.74;68.90;103565.13;5018288;28;46684;-82
2021/12/16 09:08:37;;;;;;;;;51.50;42.00;;;;;11.75;68.69;103560.75;5018752;28;45458;-82
2021/12/16 09:11:06;;;;;;;;;52.75;40.25;;;;;11.78;68.70;103564.28;5019126;28;46439;-83
2021/12/16 09:13:32;;;;;;;;;53.00;40.00;;;;;11.82;68.86;103574.00;5020703;28;46014;-83
2021/12/16 09:16:02;;;;;;;;;55.00;43.50;;;;;11.81;68.72;103564.31;5022530;28;45446;-82
2021/12/16 09:18:31;;;;;;;;;50.00;37.25;;;;;11.84;68.79;103566.06;5022112;28;45237;-83
2021/12/16 09:20:59;;;;;;;;;51.00;41.00;;;;;11.87;68.79;103562.59;5022493;28;45476;-83
2021/12/16 09:23:24;;;;;;;;;52.00;42.25;;;;;11.89;68.71;103572.28;5022477;28;45329;-82
2021/12/16 09:25:50;;;;;;;;;46.00;39.25;;;;;11.92;68.57;103572.31;5022622;28;45685;-83
2021/12/16 09:28:19;;;;;;;;;54.50;42.75;;;;;11.95;68.37;103578.47;5022048;28;45638;-83
2021/12/16 09:30:45;;;;;;;;;53.75;40.25;;;;;11.97;68.73;103572.31;5022432;28;45231;-82
2021/12/16 09:33:16;;;;;;;;;55.00;43.00;;;;;12.02;68.72;103575.88;5028803;28;45416;-82
2021/12/16 09:35:48;;;;;;;;;48.50;39.75;;;;;12.01;68.47;103574.09;5022029;28;45309;-83
2021/12/16 09:38:16;;;;;;;;;58.00;43.50;;;;;12.05;68.50;103582.91;5022023;28;45394;-83
2021/12/16 09:40:50;;;;;;;;;49.75;40.25;;;;;12.09;68.41;103586.44;5022153;28;45496;-83
2021/12/16 09:43:31;;;;;;;;;47.50;39.00;;;;;12.09;67.73;103592.63;5020815;28;45304;-83
2021/12/16 09:46:01;;;;;;;;;45.75;36.25;;;;;12.13;67.80;103593.53;5022236;28;45442;-82
2021/12/16 09:48:27;;;;;;;;;44.00;35.75;;;;;12.11;67.05;103601.41;5022080;28;45502;-82
2021/12/16 09:50:53;;;;;;;;;41.75;35.25;;;;;12.14;67.21;103601.47;5022028;28;46696;-82
2021/12/16 09:53:20;;;;;;;;;47.00;35.75;;;;;12.17;67.16;103597.97;5020783;28;45190;-82
2021/12/16 09:55:50;;;;;;;;;45.25;38.25;;;;;12.22;67.88;103596.22;5022041;28;45221;-82
2021/12/16 09:58:16;;;;;;;;;44.25;36.50;;;;;12.23;66.99;103598.00;5021770;28;45519;-82
2021/12/16 10:00:42;;;;;;;;;45.25;36.00;;;;;12.26;66.95;103602.41;5021555;28;46531;-83
2021/12/16 10:03:07;;;;;;;;;45.00;37.00;;;;;12.31;66.62;103602.44;5021566;28;45393;-83
2021/12/16 10:05:34;;;;;;;;;43.50;35.50;;;;;12.35;67.46;103604.19;5025471;28;45394;-82
2021/12/16 10:08:04;;;;;;;;;45.75;35.50;;;;;12.37;66.60;103605.97;5030776;28;45572;-83
2021/12/16 10:10:30;;;;;;;;;46.00;37.00;;;;;12.37;66.53;103599.84;5021343;28;45414;-83
2021/12/16 10:12:59;;;;;;;;;29.00;25.75;;;;;12.41;66.42;103595.47;5021413;28;45779;-83
2021/12/16 10:18:14;;;;;;;;;45.00;37.00;;;;;12.47;65.96;103606.06;5021320;28;45343;-83
2021/12/16 10:20:48;;;;;;;;;41.00;35.75;;;;;12.49;66.44;103614.84;5021477;28;45478;-83
2021/12/16 10:23:19;;;;;;;;;48.50;36.75;;;;;12.53;65.81;103606.06;5021205;28;45993;-83
2021/12/16 10:25:48;;;;;;;;;48.00;39.00;;;;;12.55;66.12;103599.03;5021471;28;46411;-83
2021/12/16 10:28:23;;;;;;;;;45.50;37.50;;;;;12.58;65.63;103600.81;5021160;28;45613;-83
2021/12/16 10:31:03;;;;;;;;;43.75;34.25;;;;;12.60;65.09;103602.59;5018205;28;47467;-82
2021/12/16 10:33:39;;;;;;;;;45.50;36.75;;;;;12.55;65.10;103603.44;5020987;28;46103;-82
2021/12/16 10:36:08;;;;;;;;;47.00;38.00;;;;;12.58;65.55;103604.34;5021292;28;45243;-83
2021/12/16 10:39:07;;;;;;;;;48.25;37.25;;;;;12.60;65.04;103607.88;5021227;28;45557;-83
2021/12/16 10:41:41;;;;;;;;;40.75;35.00;;;;;12.62;65.50;103613.13;5004104;28;46387;-83
2021/12/16 10:44:09;;;;;;;;;49.25;40.00;;;;;12.65;65.87;103609.63;5017615;28;45987;-82
2021/12/16 10:46:39;;;;;;;;;50.75;39.50;;;;;12.68;65.18;103607.00;5021377;28;45272;-83
2021/12/16 10:49:12;;;;;;;;;43.00;37.00;;;;;12.69;65.06;103606.16;5020820;28;45485;-83
2021/12/16 10:51:40;;;;;;;;;44.00;35.00;;;;;12.68;64.05;103604.38;5020954;28;46284;-83
2021/12/16 10:54:14;;;;;;;;;44.00;34.25;;;;;12.70;65.06;103605.25;5020820;28;45847;-82
2021/12/16 10:56:53;;;;;;;;;47.50;36.50;;;;;12.68;64.58;103599.09;5021183;28;45446;-82
2021/12/16 10:59:21;;;;;;;;;44.75;36.00;;;;;12.73;65.16;103601.75;5020788;28;45269;-83
2021/12/16 11:01:48;;;;;;;;;51.00;38.00;;;;;12.77;64.77;103603.53;5021013;28;46298;-83
2021/12/16 11:04:40;;;;;;;;;45.25;34.50;;;;;12.81;64.62;103605.31;5020437;28;45778;-83
2021/12/16 11:07:35;;;;;;;;;44.25;34.00;;;;;12.82;64.24;103601.78;5020637;28;45299;-83
2021/12/16 11:10:20;;;;;;;;;45.00;36.00;;;;;12.84;64.46;103610.59;5020603;28;45327;-83
2021/12/16 11:12:53;;;;;;;;;50.75;37.75;;;;;12.78;64.26;103600.00;5020750;28;45559;-83
2021/12/16 11:15:39;;;;;;;;;35.50;31.50;;;;;12.82;64.62;103609.69;5020669;28;45867;-83
2021/12/16 11:18:15;;;;;;;;;44.50;34.75;;;;;12.81;64.73;103611.47;5020715;28;45227;-83
2021/12/16 11:20:48;;;;;;;;;48.50;37.75;;;;;12.88;64.41;103608.84;5020446;28;45207;-83
2021/12/16 11:23:15;;;;;;;;;37.25;34.25;;;;;12.92;64.18;103607.97;5020348;28;46764;-83
2021/12/16 11:25:43;;;;;;;;;43.25;33.25;;;;;12.95;64.20;103610.63;5020531;28;45438;-83
2021/12/16 11:28:15;;;;;;;;;42.00;34.50;;;;;12.98;64.53;103608.00;5020357;28;45414;-83
2021/12/16 11:30:43;;;;;;;;;45.50;37.50;;;;;13.00;64.34;103613.28;5020583;28;45271;-83
2021/12/16 11:33:23;;;;;;;;;33.75;30.25;;;;;13.03;64.44;103611.56;5020378;28;45475;-83
2021/12/16 11:35:50;;;;;;;;;40.00;34.00;;;;;13.07;63.85;103603.63;5019798;28;45744;-82
2021/12/16 11:38:21;;;;;;;;;44.00;36.50;;;;;13.08;63.74;103608.03;5020378;28;45476;-83
2021/12/16 11:40:55;;;;;;;;;40.50;33.00;;;;;13.11;64.02;103597.47;5020217;28;45466;-83
2021/12/16 11:43:36;;;;;;;;;42.00;35.75;;;;;13.09;63.63;103605.38;5019611;28;46348;-83
2021/12/16 11:46:07;;;;;;;;;23.25;18.25;;;;;13.09;63.00;103600.09;5020047;28;45172;-83
2021/12/16 11:48:38;;;;;;;;;44.50;37.25;;;;;13.10;63.57;103601.00;5020406;28;45311;-83
2021/12/16 11:51:20;;;;;;;;;50.25;38.75;;;;;13.11;63.26;103602.75;5020287;28;45499;-83
2021/12/16 11:53:56;;;;;;;;;44.75;34.75;;;;;13.12;63.44;103591.31;5019887;28;46433;-82
2021/12/16 11:56:54;;;;;;;;;45.75;36.50;;;;;13.16;63.56;103596.59;5020129;28;45177;-83
2021/12/16 11:59:34;;;;;;;;;44.75;36.50;;;;;13.18;63.68;103596.63;5019527;28;45331;-83
2021/12/16 12:02:00;;;;;;;;;44.50;36.75;;;;;13.21;63.28;103591.31;5015530;28;45162;-83
2021/12/16 12:04:33;;;;;;;;;47.00;39.50;;;;;13.20;63.14;103583.41;5012755;28;45229;-83
2021/12/16 12:07:08;;;;;;;;;46.50;36.00;;;;;13.19;62.78;103597.47;5018483;28;45234;-84
2021/12/16 12:09:39;;;;;;;;;48.75;37.75;;;;;13.13;62.30;103586.03;5019362;28;45478;-84
2021/12/16 12:12:05;;;;;;;;;47.25;36.50;;;;;13.13;62.66;103590.44;5019681;28;45334;-83
2021/12/16 12:14:33;;;;;;;;;47.00;35.25;;;;;13.12;63.09;103586.03;5017572;28;46731;-84
2021/12/16 12:17:21;;;;;;;;;41.50;34.25;;;;;13.16;63.14;103590.47;5019464;28;45470;-84
2021/12/16 12:19:51;;;;;;;;;39.25;34.25;;;;;13.20;63.05;103583.41;5018418;28;45492;-85
2021/12/16 12:22:25;;;;;;;;;43.50;35.00;;;;;13.24;62.89;103587.81;5011613;28;45448;-85
2021/12/16 12:24:52;;;;;;;;;38.25;34.00;;;;;13.25;62.72;103585.19;5015330;28;45428;-85
2021/12/16 12:27:23;;;;;;;;;39.50;34.75;;;;;13.28;63.18;103579.88;5033055;28;45919;-85
2021/12/16 12:29:49;;;;;;;;;41.50;33.50;;;;;13.28;62.56;103587.81;5018184;28;45390;-85
2021/12/16 12:32:30;;;;;;;;;45.25;34.75;;;;;13.29;62.21;103580.78;5019517;28;45468;-85
2021/12/16 12:35:01;;;;;;;;;39.75;32.50;;;;;13.29;61.76;103583.41;5023816;28;45254;-85
2021/12/16 12:37:29;;;;;;;;;43.25;35.50;;;;;13.29;62.04;103578.13;5038159;28;45352;-85
2021/12/16 12:40:07;;;;;;;;;42.25;37.00;;;;;13.32;62.72;103577.25;5018801;28;45248;-85
2021/12/16 12:42:33;;;;;;;;;48.75;39.00;;;;;13.36;62.48;103573.72;5015872;28;45516;-85
2021/12/16 12:44:58;;;;;;;;;41.75;35.00;;;;;13.39;62.61;103576.38;5018588;28;45534;-85
2021/12/16 12:47:33;;;;;;;;;43.25;34.25;;;;;13.38;61.69;103566.72;5013768;28;45466;-86
2021/12/16 12:50:25;;;;;;;;;47.00;39.00;;;;;13.35;61.91;103564.94;5026364;28;45385;-86
2021/12/16 12:52:53;;;;;;;;;39.00;34.50;;;;;13.36;61.23;103566.69;5028054;28;45345;-85
2021/12/16 12:55:29;;;;;;;;;38.50;33.25;;;;;13.35;61.86;103567.59;5022986;28;45403;-86
2021/12/16 12:58:08;;;;;;;;;34.00;31.25;;;;;13.41;61.99;103564.03;5037254;28;45445;-85
2021/12/16 13:00:38;;;;;;;;;38.50;33.00;;;;;13.43;61.69;103564.94;5022938;28;45296;-85
2021/12/16 13:03:17;;;;;;;;;35.75;30.75;;;;;13.45;62.22;103549.97;5022482;28;45408;-85
2021/12/16 13:06:00;;;;;;;;;36.00;33.75;;;;;13.47;61.79;103555.25;5022545;28;46466;-85
2021/12/16 13:08:30;;;;;;;;;35.50;33.25;;;;;13.46;60.92;103557.00;5037909;28;45430;-86
2021/12/16 13:11:03;;;;;;;;;35.00;30.25;;;;;13.46;60.99;103557.00;5034110;28;45230;-85
2021/12/16 13:13:34;;;;;;;;;36.50;29.25;;;;;13.47;61.28;103557.88;5021710;28;45944;-85
2021/12/16 13:27:44;;;;;;;;;43.75;36.00;;;;;13.56;61.06;103534.13;5010450;28;45374;-86
2021/12/16 13:32:49;;;;;;;;;32.25;30.25;;;;;13.59;60.81;103535.91;5010259;28;45346;-86
2021/12/16 13:37:46;;;;;;;;;43.75;35.25;;;;;13.57;60.36;103535.03;5021708;28;47149;-86
2021/12/16 13:40:14;;;;;;;;;37.75;31.25;;;;;13.56;60.50;103531.50;5022245;28;45388;-86
2021/12/16 13:42:57;;;;;;;;;46.25;37.75;;;;;13.54;60.95;103534.97;5010443;28;45437;-86
2021/12/16 13:45:32;;;;;;;;;46.25;37.00;;;;;13.56;60.60;103527.94;5017892;28;45386;-86
2021/12/16 13:48:09;;;;;;;;;33.75;31.25;;;;;13.59;60.20;103530.59;5010424;28;45348;-86
2021/12/16 14:10:14;;;;;;;;;39.75;33.00;;;;;13.66;59.97;103531.47;5023720;28;45372;-87
2021/12/16 14:14:06;;;;;;;;;46.00;36.75;;;;;13.65;60.43;103529.72;5014972;28;45974;-87
2021/12/16 14:16:14;;;;;;;;;28.50;28.50;;;;;13.65;60.10;103530.63;5020946;28;45405;-86
2021/12/16 14:25:08;;;;;;;;;38.50;31.75;;;;;13.63;59.91;103540.28;5006236;28;45399;-86
2021/12/16 14:40:07;;;;;;;;;37.50;33.00;;;;;13.63;60.20;103527.06;5009704;28;45600;-86
2021/12/16 14:42:17;;;;;;;;;39.75;33.25;;;;;13.65;60.17;103535.91;5009667;28;45536;-86
2021/12/16 14:50:16;;;;;;;;;56.25;43.00;;;;;13.60;60.29;103537.66;5019398;28;45355;-87